Time;durP1;ratioP1;P1;durP2;ratioP2;P2;SDS_P1;SDS_P2;PMS_P1;PMS_P2;Temp;Humidity;BMP_temperature;BMP_pressure;BME280_temperature;BME280_humidity;BME280_pressure;Samples;Min_cycle;Max_cycle;Signal;HPM_P1;HPM_P2
2023/06/18 00:00:11;;;;;;;10.77;4.28;;;;;;;-144.57;100.00;62443.72;4954703;29;20051;-59
2023/06/18 00:02:37;;;;;;;8.38;4.22;;;;;;;-144.57;100.00;62443.72;4955918;28;20042;-59
2023/06/18 00:05:03;;;;;;;8.80;4.10;;;;;;;-144.57;100.00;62443.72;4956037;29;20046;-59
2023/06/18 00:07:29;;;;;;;6.95;4.25;;;;;;;-144.57;100.00;62443.72;4938782;29;20051;-61
2023/06/18 00:09:55;;;;;;;8.23;4.28;;;;;;;-144.57;100.00;62443.72;4938750;29;20054;-59
2023/06/18 00:12:20;;;;;;;11.25;4.40;;;;;;;-144.57;100.00;62443.72;4955890;29;20391;-61
2023/06/18 00:14:46;;;;;;;9.82;5.13;;;;;;;-144.57;100.00;62443.72;4955537;29;20047;-60
2023/06/18 00:17:12;;;;;;;7.35;4.15;;;;;;;-144.57;100.00;62443.72;4955629;29;20047;-62
2023/06/18 00:19:37;;;;;;;9.30;4.47;;;;;;;-144.57;100.00;62443.72;4954395;28;20062;-59
2023/06/18 00:22:05;;;;;;;10.30;4.70;;;;;;;-144.57;100.00;62443.72;4938305;29;20050;-61
2023/06/18 00:24:31;;;;;;;9.82;4.38;;;;;;;-144.57;100.00;62443.72;4955715;29;20039;-59
2023/06/18 00:26:56;;;;;;;7.95;4.63;;;;;;;-144.57;100.00;62443.72;4938213;29;20047;-61
2023/06/18 00:29:22;;;;;;;8.63;4.57;;;;;;;-144.57;100.00;62443.72;4953176;28;20044;-59
2023/06/18 00:31:48;;;;;;;11.95;6.07;;;;;;;-144.57;100.00;62443.72;4938279;29;20274;-60
2023/06/18 00:34:14;;;;;;;10.30;4.82;;;;;;;-144.57;100.00;62443.72;4955284;29;20130;-58
2023/06/18 00:36:43;;;;;;;7.63;4.22;;;;;;;-144.57;100.00;62443.72;4938082;29;20039;-59
2023/06/18 00:39:12;;;;;;;7.90;4.32;;;;;;;-144.57;100.00;62443.72;4937901;29;20171;-59
2023/06/18 00:41:37;;;;;;;9.77;4.80;;;;;;;-144.57;100.00;62443.72;4955273;29;20109;-58
2023/06/18 00:44:08;;;;;;;7.47;4.88;;;;;;;-144.57;100.00;62443.72;4955163;29;20446;-60
2023/06/18 00:46:35;;;;;;;;;;;;;;;-144.57;100.00;62443.72;4938533;29;20429;-58
2023/06/18 00:49:01;;;;;;;10.50;4.35;;;;;;;-144.57;100.00;62443.72;4955163;29;20380;-60
2023/06/18 00:51:27;;;;;;;11.10;4.95;;;;;;;-144.57;100.00;62443.72;4953782;29;20075;-60
2023/06/18 00:53:54;;;;;;;12.07;5.68;;;;;;;-144.57;100.00;62443.72;4954037;29;20046;-59
2023/06/18 00:56:21;;;;;;;10.40;4.57;;;;;;;-144.57;100.00;62443.72;4937732;29;20043;-59
2023/06/18 00:58:47;;;;;;;9.95;4.72;;;;;;;-144.57;100.00;62443.72;4954981;29;20090;-59
2023/06/18 01:01:14;;;;;;;7.43;4.82;;;;;;;-144.57;100.00;62443.72;4954597;29;20036;-59
2023/06/18 01:03:41;;;;;;;9.60;4.93;;;;;;;-144.57;100.00;62443.72;4937619;29;20050;-59
2023/06/18 01:06:09;;;;;;;8.82;4.38;;;;;;;-144.57;100.00;62443.72;4954619;29;20047;-58
2023/06/18 01:08:36;;;;;;;11.48;5.25;;;;;;;-144.57;100.00;62443.72;4937389;29;20045;-59
2023/06/18 01:11:03;;;;;;;8.57;4.88;;;;;;;-144.57;100.00;62443.72;4937440;29;20094;-59
2023/06/18 01:13:30;;;;;;;8.95;4.72;;;;;;;-144.57;100.00;62443.72;4954769;29;20468;-60
2023/06/18 01:16:07;;;;;;;10.25;4.93;;;;;;;-144.57;100.00;62443.72;4937252;29;20047;-59
2023/06/18 01:18:35;;;;;;;10.48;5.28;;;;;;;-144.57;100.00;62443.72;4937488;29;20186;-59
2023/06/18 01:21:12;;;;;;;10.00;5.00;;;;;;;-144.57;100.00;62443.72;4921667;29;20051;-59
2023/06/18 01:24:04;;;;;;;8.43;4.72;;;;;;;-144.57;100.00;62443.72;4954395;29;20110;-59
2023/06/18 01:26:31;;;;;;;9.23;4.78;;;;;;;-144.57;100.00;62443.72;4953238;29;20049;-59
2023/06/18 01:28:58;;;;;;;12.93;5.10;;;;;;;-144.57;100.00;62443.72;4937131;29;20150;-59
2023/06/18 01:31:25;;;;;;;9.57;4.43;;;;;;;-144.57;100.00;62443.72;4937245;29;20078;-60
2023/06/18 01:33:51;;;;;;;10.93;5.07;;;;;;;-144.57;100.00;62443.72;4954126;29;20501;-59
2023/06/18 01:36:53;;;;;;;9.82;4.88;;;;;;;-144.57;100.00;62443.72;4937190;29;20525;-59
2023/06/18 01:39:36;;;;;;;9.65;4.82;;;;;;;-144.57;100.00;62443.72;4952162;28;20067;-59
2023/06/18 01:42:10;;;;;;;10.70;4.78;;;;;;;-144.57;100.00;62443.72;4954277;29;20047;-60
2023/06/18 01:44:38;;;;;;;10.60;4.95;;;;;;;-144.57;100.00;62443.72;4954291;29;20051;-60
2023/06/18 01:47:04;;;;;;;10.20;5.00;;;;;;;-144.57;100.00;62443.72;4936799;29;20082;-59
2023/06/18 01:49:31;;;;;;;9.10;4.75;;;;;;;-144.57;100.00;62443.72;4952729;29;20047;-59
2023/06/18 01:52:01;;;;;;;7.60;4.78;;;;;;;-144.57;100.00;62443.72;4952629;29;20047;-59
2023/06/18 01:54:27;;;;;;;7.93;4.70;;;;;;;-144.57;100.00;62443.72;4936635;29;20051;-61
2023/06/18 01:56:53;;;;;;;9.40;4.57;;;;;;;-144.57;100.00;62443.72;4952519;29;20098;-60
2023/06/18 01:59:20;;;;;;;6.55;4.68;;;;;;;-144.57;100.00;62443.72;4936631;29;20051;-61
2023/06/18 02:01:46;;;;;;;8.48;4.70;;;;;;;-144.57;100.00;62443.72;4952521;29;20129;-60
2023/06/18 02:04:12;;;;;;;13.05;4.90;;;;;;;-144.57;100.00;62443.72;4936310;29;20428;-60
2023/06/18 02:06:38;;;;;;;8.65;4.95;;;;;;;-144.57;100.00;62443.72;4952434;29;20043;-61
2023/06/18 02:09:03;;;;;;;11.52;5.38;;;;;;;-144.57;100.00;62443.72;4952390;29;20055;-59
2023/06/18 02:11:29;;;;;;;7.65;4.50;;;;;;;-144.57;100.00;62443.72;4936311;29;20048;-61
2023/06/18 02:13:55;;;;;;;8.00;4.68;;;;;;;-144.57;100.00;62443.72;4953605;29;20510;-62
2023/06/18 02:16:21;;;;;;;11.38;5.05;;;;;;;-144.57;100.00;62443.72;4952277;28;20095;-59
2023/06/18 02:18:47;;;;;;;8.68;5.18;;;;;;;-144.57;100.00;62443.72;4953687;29;20470;-59
2023/06/18 02:21:12;;;;;;;6.95;4.85;;;;;;;-144.57;100.00;62443.72;4952194;29;20137;-60
2023/06/18 02:23:38;;;;;;;8.10;4.63;;;;;;;-144.57;100.00;62443.72;4953628;29;20130;-60
2023/06/18 02:26:04;;;;;;;8.43;5.13;;;;;;;-144.57;100.00;62443.72;4936114;29;20044;-60
2023/06/18 02:28:29;;;;;;;7.25;4.60;;;;;;;-144.57;100.00;62443.72;4953473;29;20139;-60
2023/06/18 02:30:58;;;;;;;13.50;5.38;;;;;;;-144.57;100.00;62443.72;4920304;29;20424;-59
2023/06/18 02:33:24;;;;;;;9.43;4.82;;;;;;;-144.57;100.00;62443.72;4953285;28;20069;-59
2023/06/18 02:35:49;;;;;;;7.85;4.65;;;;;;;-144.57;100.00;62443.72;4936086;29;20051;-59
2023/06/18 02:38:15;;;;;;;8.48;5.00;;;;;;;-144.57;100.00;62443.72;4953249;29;20059;-60
2023/06/18 02:40:40;;;;;;;9.80;4.93;;;;;;;-144.57;100.00;62443.72;4953210;29;20042;-59
2023/06/18 02:43:08;;;;;;;10.95;4.60;;;;;;;-144.57;100.00;62443.72;4953198;29;20122;-62
2023/06/18 02:45:34;;;;;;;8.35;4.60;;;;;;;-144.57;100.00;62443.72;4953471;29;20047;-60
2023/06/18 02:48:00;;;;;;;10.15;4.95;;;;;;;-144.57;100.00;62443.72;4953307;29;20043;-61
2023/06/18 02:50:26;;;;;;;11.45;4.70;;;;;;;-144.57;100.00;62443.72;4953491;29;20047;-59
2023/06/18 02:52:54;;;;;;;8.57;5.25;;;;;;;-144.57;100.00;62443.72;4954830;28;20050;-61
2023/06/18 02:55:20;;;;;;;8.45;4.70;;;;;;;-144.57;100.00;62443.72;4940120;29;20047;-60
2023/06/18 02:57:45;;;;;;;10.32;4.50;;;;;;;-144.57;100.00;62443.72;4939780;29;20130;-61
2023/06/18 03:00:13;;;;;;;10.38;4.47;;;;;;;-144.57;100.00;62443.72;4939863;29;20059;-60
2023/06/18 03:02:42;;;;;;;7.57;4.30;;;;;;;-144.57;100.00;62443.72;4955755;28;20516;-60
2023/06/18 03:05:11;;;;;;;;;;;;;;;-144.57;100.00;62443.72;4940227;29;20061;-60
2023/06/18 03:07:37;;;;;;;9.30;4.50;;;;;;;-144.57;100.00;62443.72;4939738;29;19922;-61
2023/06/18 03:10:03;;;;;;;7.13;4.45;;;;;;;-144.57;100.00;62443.72;4957046;29;20498;-59
2023/06/18 03:12:31;;;;;;;7.50;4.38;;;;;;;-144.57;100.00;62443.72;4939524;28;20047;-60
2023/06/18 03:14:59;;;;;;;12.23;4.72;;;;;;;-144.57;100.00;62443.72;4939591;29;20134;-60
2023/06/18 03:17:27;;;;;;;9.18;4.45;;;;;;;-144.57;100.00;62443.72;4939487;29;20106;-59
2023/06/18 03:19:53;;;;;;;5.95;3.90;;;;;;;-144.57;100.00;62443.72;4955418;29;20051;-60
2023/06/18 03:22:20;;;;;;;7.43;4.50;;;;;;;-144.57;100.00;62443.72;4939494;29;20047;-60
2023/06/18 03:24:49;;;;;;;10.10;4.93;;;;;;;-144.57;100.00;62443.72;4939528;29;20519;-60
2023/06/18 03:27:15;;;;;;;8.18;3.83;;;;;;;-144.57;100.00;62443.72;4955285;28;20390;-60
2023/06/18 03:29:42;;;;;;;10.65;4.70;;;;;;;-144.57;100.00;62443.72;4939491;29;20043;-60
2023/06/18 03:32:08;;;;;;;9.40;4.65;;;;;;;-144.57;100.00;62443.72;4955296;29;20047;-58
2023/06/18 03:34:36;;;;;;;9.70;4.47;;;;;;;-144.57;100.00;62443.72;4939376;29;20067;-59
2023/06/18 03:37:03;;;;;;;8.65;4.65;;;;;;;-144.57;100.00;62443.72;4938983;29;20472;-61
2023/06/18 03:39:30;;;;;;;10.40;4.28;;;;;;;-144.57;100.00;62443.72;4954892;29;20142;-60
2023/06/18 03:41:56;;;;;;;8.15;4.63;;;;;;;-144.57;100.00;62443.72;4954983;29;20122;-60
2023/06/18 03:44:22;;;;;;;9.57;4.20;;;;;;;-144.57;100.00;62443.72;4923129;29;20596;-59
2023/06/18 03:46:48;;;;;;;10.25;4.35;;;;;;;-144.57;100.00;62443.72;4939028;29;20051;-60
2023/06/18 03:49:13;;;;;;;6.57;4.10;;;;;;;-144.57;100.00;62443.72;4954857;29;20051;-59
2023/06/18 03:51:39;;;;;;;12.35;4.07;;;;;;;-144.57;100.00;62443.72;4938864;29;20082;-60
2023/06/18 03:54:06;;;;;;;8.82;4.28;;;;;;;-144.57;100.00;62443.72;4954612;29;20058;-60
2023/06/18 03:56:33;;;;;;;8.27;4.30;;;;;;;-144.57;100.00;62443.72;4938783;29;20067;-60
2023/06/18 03:59:00;;;;;;;7.15;3.85;;;;;;;-144.57;100.00;62443.72;4956078;29;20051;-60
2023/06/18 04:01:27;;;;;;;9.85;3.97;;;;;;;-144.57;100.00;62443.72;4938622;29;20042;-61
2023/06/18 04:03:53;;;;;;;10.13;4.40;;;;;;;-144.57;100.00;62443.72;4953301;28;20142;-60
2023/06/18 04:06:19;;;;;;;10.82;4.20;;;;;;;-144.57;100.00;62443.72;4954460;29;20134;-60
2023/06/18 04:08:45;;;;;;;10.25;4.30;;;;;;;-144.57;100.00;62443.72;4954727;29;20458;-60
2023/06/18 04:11:13;;;;;;;12.63;5.43;;;;;;;-144.57;100.00;62443.72;4955917;29;20039;-58
2023/06/18 04:13:40;;;;;;;11.18;4.20;;;;;;;-144.57;100.00;62443.72;4954416;29;20043;-60
2023/06/18 04:16:06;;;;;;;10.60;4.00;;;;;;;-144.57;100.00;62443.72;4938335;29;20518;-60
2023/06/18 04:18:32;;;;;;;15.30;4.57;;;;;;;-144.57;100.00;62443.72;4954483;29;20036;-60
2023/06/18 04:20:57;;;;;;;10.13;3.83;;;;;;;-144.57;100.00;62443.72;4938161;29;20175;-59
2023/06/18 04:23:23;;;;;;;11.82;4.38;;;;;;;-144.57;100.00;62443.72;4938425;29;20098;-60
2023/06/18 04:25:49;;;;;;;15.52;4.72;;;;;;;-144.57;100.00;62443.72;4938220;29;20051;-60
2023/06/18 04:28:15;;;;;;;22.90;5.38;;;;;;;-144.57;100.00;62443.72;4953966;29;20060;-61
2023/06/18 04:30:41;;;;;;;10.30;3.80;;;;;;;-144.57;100.00;62443.72;4938253;29;20448;-60
2023/06/18 04:33:08;;;;;;;9.40;3.55;;;;;;;-144.57;100.00;62443.72;4934719;29;20066;-59
2023/06/18 04:35:34;;;;;;;10.60;3.83;;;;;;;-144.57;100.00;62443.72;4934935;29;20060;-59
2023/06/18 04:37:59;;;;;;;10.60;3.80;;;;;;;-144.57;100.00;62443.72;4934836;29;20155;-61
2023/06/18 04:40:26;;;;;;;9.43;3.80;;;;;;;-144.57;100.00;62443.72;4934911;29;20071;-58
2023/06/18 04:42:52;;;;;;;11.50;4.05;;;;;;;-144.57;100.00;62443.72;4950736;29;20036;-61
2023/06/18 04:45:25;;;;;;;9.63;3.60;;;;;;;-144.57;100.00;62443.72;4934828;29;20087;-59
2023/06/18 04:47:50;;;;;;;8.45;3.78;;;;;;;-144.57;100.00;62443.72;4934519;29;20039;-61
2023/06/18 04:50:16;;;;;;;9.23;3.70;;;;;;;-144.57;100.00;62443.72;4950456;29;20048;-59
2023/06/18 04:52:46;;;;;;;9.40;3.92;;;;;;;-144.57;100.00;62443.72;4934468;29;20052;-60
2023/06/18 04:55:12;;;;;;;16.63;3.85;;;;;;;-144.57;100.00;62443.72;4934594;29;20054;-60
2023/06/18 04:57:39;;;;;;;16.67;4.13;;;;;;;-144.57;100.00;62443.72;4934760;29;20046;-61
2023/06/18 05:00:07;;;;;;;8.65;3.38;;;;;;;-144.57;100.00;62443.72;4950405;29;20055;-59
2023/06/18 05:02:35;;;;;;;;;;;;;;;-144.57;100.00;62443.72;4934881;29;20059;-60
2023/06/18 05:05:01;;;;;;;8.25;3.55;;;;;;;-144.57;100.00;62443.72;4935934;29;19926;-60
2023/06/18 05:07:26;;;;;;;8.50;3.30;;;;;;;-144.57;100.00;62443.72;4934405;29;20056;-59
2023/06/18 05:09:52;;;;;;;10.30;4.20;;;;;;;-144.57;100.00;62443.72;4934458;29;20052;-60
2023/06/18 05:12:18;;;;;;;8.07;3.53;;;;;;;-144.57;100.00;62443.72;4934083;29;20549;-61
2023/06/18 05:14:44;;;;;;;5.82;2.88;;;;;;;-144.57;100.00;62443.72;4933417;29;20047;-60
2023/06/18 05:17:10;;;;;;;20.52;3.95;;;;;;;-144.57;100.00;62443.72;4933953;29;20043;-61
2023/06/18 05:19:36;;;;;;;9.00;3.42;;;;;;;-144.57;100.00;62443.72;4935512;29;20048;-59
2023/06/18 05:22:02;;;;;;;6.25;3.42;;;;;;;-144.57;100.00;62443.72;4933759;29;20058;-61
2023/06/18 05:24:29;;;;;;;5.20;3.13;;;;;;;-144.57;100.00;62443.72;4934012;29;20047;-60
2023/06/18 05:26:54;;;;;;;7.80;3.42;;;;;;;-144.57;100.00;62443.72;4935271;29;20046;-59
2023/06/18 05:29:22;;;;;;;7.07;3.28;;;;;;;-144.57;100.00;62443.72;4949858;29;20422;-60
2023/06/18 05:31:50;;;;;;;9.27;3.15;;;;;;;-144.57;100.00;62443.72;4933765;29;20138;-60
2023/06/18 05:34:25;;;;;;;6.38;2.92;;;;;;;-144.57;100.00;62443.72;4950997;29;20058;-59
2023/06/18 05:36:50;;;;;;;5.97;3.13;;;;;;;-144.57;100.00;62443.72;4936987;29;20505;-62
2023/06/18 05:39:16;;;;;;;5.25;2.85;;;;;;;-144.57;100.00;62443.72;4952908;28;20059;-61
2023/06/18 05:41:42;;;;;;;4.47;2.90;;;;;;;-144.57;100.00;62443.72;4920953;29;20045;-62
2023/06/18 05:44:08;;;;;;;6.18;3.10;;;;;;;-144.57;100.00;62443.72;4952562;29;20047;-60
2023/06/18 05:46:34;;;;;;;5.00;3.13;;;;;;;-144.57;100.00;62443.72;4936847;29;20059;-60
2023/06/18 05:49:00;;;;;;;4.32;3.05;;;;;;;-144.57;100.00;62443.72;4952622;29;20066;-59
2023/06/18 05:51:27;;;;;;;6.85;3.00;;;;;;;-144.57;100.00;62443.72;4952571;28;20425;-60
2023/06/18 05:53:53;;;;;;;6.00;2.97;;;;;;;-144.57;100.00;62443.72;4936545;29;20047;-60
2023/06/18 05:56:19;;;;;;;6.60;3.22;;;;;;;-144.57;100.00;62443.72;4952523;29;20094;-60
2023/06/18 05:58:45;;;;;;;7.63;3.28;;;;;;;-144.57;100.00;62443.72;4952564;28;20062;-60
2023/06/18 06:01:11;;;;;;;5.97;3.55;;;;;;;-144.57;100.00;62443.72;4952517;28;20043;-60
2023/06/18 06:03:37;;;;;;;8.35;3.00;;;;;;;-144.57;100.00;62443.72;4936519;29;20047;-61
2023/06/18 06:06:03;;;;;;;6.40;2.72;;;;;;;-144.57;100.00;62443.72;4936249;29;20505;-60
2023/06/18 06:08:30;;;;;;;6.05;3.25;;;;;;;-144.57;100.00;62443.72;4952407;29;20054;-60
2023/06/18 06:10:59;;;;;;;5.70;3.22;;;;;;;-144.57;100.00;62443.72;4952438;28;20403;-59
2023/06/18 06:13:25;;;;;;;11.02;3.10;;;;;;;-144.57;100.00;62443.72;4920458;29;20043;-59
2023/06/18 06:15:57;;;;;;;8.50;3.00;;;;;;;-144.57;100.00;62443.72;4952301;28;20497;-60
2023/06/18 06:18:22;;;;;;;6.72;3.00;;;;;;;-144.57;100.00;62443.72;4953428;29;20054;-59
2023/06/18 06:20:48;;;;;;;10.77;3.45;;;;;;;-144.57;100.00;62443.72;4953430;29;20082;-60
2023/06/18 06:23:14;;;;;;;5.88;3.30;;;;;;;-144.57;100.00;62443.72;4936218;29;20133;-61
2023/06/18 06:25:40;;;;;;;8.25;3.30;;;;;;;-144.57;100.00;62443.72;4936203;28;20114;-58
2023/06/18 06:28:06;;;;;;;6.82;3.50;;;;;;;-144.57;100.00;62443.72;4951571;29;20074;-61
2023/06/18 06:30:32;;;;;;;7.32;3.50;;;;;;;-144.57;100.00;62443.72;4920304;29;20601;-60
2023/06/18 06:33:03;;;;;;;8.18;3.20;;;;;;;-144.57;100.00;62443.72;4951922;28;20059;-60
2023/06/18 06:35:29;;;;;;;6.05;3.20;;;;;;;-144.57;100.00;62443.72;4920365;29;20149;-59
2023/06/18 06:37:55;;;;;;;7.75;3.28;;;;;;;-144.57;100.00;62443.72;4952197;29;20043;-60
2023/06/18 06:40:22;;;;;;;5.30;3.17;;;;;;;-144.57;100.00;62443.72;4936129;29;20047;-60
2023/06/18 06:42:48;;;;;;;7.95;3.63;;;;;;;-144.57;100.00;62443.72;4936012;29;20039;-61
2023/06/18 06:45:23;;;;;;;6.13;3.72;;;;;;;-144.57;100.00;62443.72;4951874;28;20051;-60
2023/06/18 06:48:04;;;;;;;8.10;3.40;;;;;;;-144.57;100.00;62443.72;4953126;29;20043;-59
2023/06/18 06:50:41;;;;;;;6.97;3.22;;;;;;;-144.57;100.00;62443.72;4952920;29;20047;-60
2023/06/18 06:53:13;;;;;;;8.02;3.10;;;;;;;-144.57;100.00;62443.72;4935859;29;20049;-61
2023/06/18 06:55:40;;;;;;;7.35;3.45;;;;;;;-144.57;100.00;62443.72;4952988;29;20532;-60
2023/06/18 06:58:10;;;;;;;5.63;3.33;;;;;;;-144.57;100.00;62443.72;4951783;29;20167;-60
2023/06/18 07:00:35;;;;;;;6.90;3.38;;;;;;;-144.57;100.00;62443.72;4935939;29;20142;-59
2023/06/18 07:03:01;;;;;;;6.47;3.42;;;;;;;-144.57;100.00;62443.72;4952857;29;20525;-60
2023/06/18 07:05:27;;;;;;;7.50;3.70;;;;;;;-144.57;100.00;62443.72;4951898;28;20047;-61
2023/06/18 07:07:52;;;;;;;6.57;3.42;;;;;;;-144.57;100.00;62443.72;4952878;29;20138;-61
2023/06/18 07:10:18;;;;;;;7.18;3.40;;;;;;;-144.57;100.00;62443.72;4953160;29;20047;-60
2023/06/18 07:12:44;;;;;;;6.47;2.95;;;;;;;-144.57;100.00;62443.72;4935487;29;20045;-59
2023/06/18 07:15:10;;;;;;;5.38;3.08;;;;;;;-144.57;100.00;62443.72;4935252;29;20121;-61
2023/06/18 07:17:36;;;;;;;5.75;3.33;;;;;;;-144.57;100.00;62443.72;4952549;29;20508;-61
2023/06/18 07:20:02;;;;;;;8.27;3.35;;;;;;;-144.57;100.00;62443.72;4952691;29;20047;-60
2023/06/18 07:22:28;;;;;;;16.67;3.22;;;;;;;-144.57;100.00;62443.72;4952285;29;20047;-59
2023/06/18 07:24:56;;;;;;;4.95;3.50;;;;;;;-144.57;100.00;62443.72;4935265;29;20098;-60
2023/06/18 07:27:24;;;;;;;8.13;3.50;;;;;;;-144.57;100.00;62443.72;4952531;29;20050;-59
2023/06/18 07:29:50;;;;;;;6.68;3.42;;;;;;;-144.57;100.00;62443.72;4952782;29;20055;-60
2023/06/18 07:32:16;;;;;;;8.35;4.00;;;;;;;-144.57;100.00;62443.72;4935257;29;20043;-60
2023/06/18 07:34:42;;;;;;;8.27;3.50;;;;;;;-144.57;100.00;62443.72;4952646;29;20067;-59
2023/06/18 07:37:08;;;;;;;5.50;3.67;;;;;;;-144.57;100.00;62443.72;4951444;28;20490;-60
2023/06/18 07:39:33;;;;;;;11.20;3.40;;;;;;;-144.57;100.00;62443.72;4956241;29;20134;-58
2023/06/18 07:41:59;;;;;;;5.47;3.42;;;;;;;-144.57;100.00;62443.72;4938872;29;20054;-59
2023/06/18 07:44:25;;;;;;;6.88;3.22;;;;;;;-144.57;100.00;62443.72;4956485;29;20039;-60
2023/06/18 07:46:51;;;;;;;6.53;3.25;;;;;;;-144.57;100.00;62443.72;4956363;29;20509;-61
2023/06/18 07:49:16;;;;;;;7.70;3.22;;;;;;;-144.57;100.00;62443.72;4956143;29;20047;-60
2023/06/18 07:51:43;;;;;;;7.88;3.55;;;;;;;-144.57;100.00;62443.72;4956268;28;20417;-61
2023/06/18 07:54:08;;;;;;;6.03;3.50;;;;;;;-144.57;100.00;62443.72;4938745;29;20051;-60
2023/06/18 07:56:34;;;;;;;6.60;3.35;;;;;;;-144.57;100.00;62443.72;4938923;29;20453;-62
2023/06/18 07:59:00;;;;;;;6.53;3.85;;;;;;;-144.57;100.00;62443.72;4955857;29;20083;-59
2023/06/18 08:01:26;;;;;;;6.72;3.50;;;;;;;-144.57;100.00;62443.72;4955742;29;20513;-61
2023/06/18 08:03:51;;;;;;;8.13;3.40;;;;;;;-144.57;100.00;62443.72;4955914;29;20091;-60
2023/06/18 08:06:17;;;;;;;8.48;3.63;;;;;;;-144.57;100.00;62443.72;4955456;29;20101;-59
2023/06/18 08:08:43;;;;;;;4.68;3.08;;;;;;;-144.57;100.00;62443.72;4955625;29;20089;-60
2023/06/18 08:11:08;;;;;;;4.05;3.17;;;;;;;-144.57;100.00;62443.72;4955669;29;20101;-59
2023/06/18 08:13:34;;;;;;;8.38;3.80;;;;;;;-144.57;100.00;62443.72;4955720;29;20134;-60
2023/06/18 08:16:00;;;;;;;5.25;3.47;;;;;;;-144.57;100.00;62443.72;4954327;29;20477;-60
2023/06/18 08:18:26;;;;;;;5.85;3.15;;;;;;;-144.57;100.00;62443.72;4954337;28;20047;-60
2023/06/18 08:20:52;;;;;;;7.55;3.35;;;;;;;-144.57;100.00;62443.72;4955348;29;20058;-61
2023/06/18 08:23:17;;;;;;;6.25;3.13;;;;;;;-144.57;100.00;62443.72;4955320;29;20062;-61
2023/06/18 08:25:43;;;;;;;6.68;3.45;;;;;;;-144.57;100.00;62443.72;4955337;29;20043;-58
2023/06/18 08:28:08;;;;;;;6.43;3.28;;;;;;;-144.57;100.00;62443.72;4955348;29;20082;-63
2023/06/18 08:30:34;;;;;;;7.13;3.42;;;;;;;-144.57;100.00;62443.72;4955075;29;20054;-60
2023/06/18 08:33:00;;;;;;;8.05;3.83;;;;;;;-144.57;100.00;62443.72;4954706;29;20094;-60
2023/06/18 08:35:25;;;;;;;6.22;3.38;;;;;;;-144.57;100.00;62443.72;4955422;29;20051;-60
2023/06/18 08:37:51;;;;;;;3.97;2.97;;;;;;;-144.57;100.00;62443.72;4955214;29;20506;-60
2023/06/18 08:40:21;;;;;;;5.32;2.83;;;;;;;-144.57;100.00;62443.72;4953790;29;20529;-61
2023/06/18 08:42:46;;;;;;;5.80;3.28;;;;;;;-144.57;100.00;62443.72;4953720;29;20047;-60
2023/06/18 08:45:12;;;;;;;5.30;3.15;;;;;;;-144.57;100.00;62443.72;4955380;29;20054;-61
2023/06/18 08:47:39;;;;;;;4.88;3.03;;;;;;;-144.57;100.00;62443.72;4953849;29;20545;-61
2023/06/18 08:50:06;;;;;;;6.47;3.80;;;;;;;-144.57;100.00;62443.72;4954532;28;20051;-60
2023/06/18 08:52:32;;;;;;;5.07;3.20;;;;;;;-144.57;100.00;62443.72;4953711;29;20509;-60
2023/06/18 08:55:02;;;;;;;7.40;3.38;;;;;;;-144.57;100.00;62443.72;4953243;29;20568;-60
2023/06/18 08:57:35;;;;;;;4.80;3.30;;;;;;;-144.57;100.00;62443.72;4954915;29;20051;-60
2023/06/18 09:00:03;;;;;;;7.05;3.47;;;;;;;-144.57;100.00;62443.72;4953508;29;20157;-61
2023/06/18 09:02:30;;;;;;;5.63;3.40;;;;;;;-144.57;100.00;62443.72;4954682;29;20533;-61
2023/06/18 09:04:56;;;;;;;5.85;3.55;;;;;;;-144.57;100.00;62443.72;4937527;29;20075;-60
2023/06/18 09:07:23;;;;;;;5.78;3.20;;;;;;;-144.57;100.00;62443.72;4954363;29;20119;-61
2023/06/18 09:09:49;;;;;;;6.30;3.15;;;;;;;-144.57;100.00;62443.72;4954384;29;20059;-59
2023/06/18 09:12:17;;;;;;;6.50;3.58;;;;;;;-144.57;100.00;62443.72;4953130;28;20510;-60
2023/06/18 09:14:44;;;;;;;5.32;3.45;;;;;;;-144.57;100.00;62443.72;4937353;29;20053;-60
2023/06/18 09:17:11;;;;;;;7.00;3.28;;;;;;;-144.57;100.00;62443.72;4937220;29;20055;-61
2023/06/18 09:19:37;;;;;;;5.63;3.47;;;;;;;-144.57;100.00;62443.72;4937242;29;20047;-60
2023/06/18 09:22:16;;;;;;;6.18;3.65;;;;;;;-144.57;100.00;62443.72;4954317;29;20057;-60
2023/06/18 09:24:46;;;;;;;6.20;3.22;;;;;;;-144.57;100.00;62443.72;4954630;29;20046;-58
2023/06/18 09:27:12;;;;;;;4.55;3.67;;;;;;;-144.57;100.00;62443.72;4937026;29;20051;-61
2023/06/18 09:29:41;;;;;;;5.03;3.70;;;;;;;-144.57;100.00;62443.72;4937032;29;20102;-60
2023/06/18 09:32:11;;;;;;;7.10;4.78;;;;;;;-144.57;100.00;62443.72;4954276;29;20394;-61
2023/06/18 09:34:38;;;;;;;7.40;3.85;;;;;;;-144.57;100.00;62443.72;4954376;29;20067;-60
2023/06/18 09:37:05;;;;;;;8.55;3.67;;;;;;;-144.57;100.00;62443.72;4954071;29;20050;-61
2023/06/18 09:39:33;;;;;;;6.55;3.85;;;;;;;-144.57;100.00;62443.72;4954090;29;20516;-59
2023/06/18 09:42:05;;;;;;;5.32;3.33;;;;;;;-144.57;100.00;62443.72;4936900;29;20047;-59
2023/06/18 09:44:31;;;;;;;8.23;3.20;;;;;;;-144.57;100.00;62443.72;4954361;29;20074;-60
2023/06/18 09:46:57;;;;;;;6.15;3.30;;;;;;;-144.57;100.00;62443.72;4953799;29;20081;-61
2023/06/18 09:49:24;;;;;;;6.05;3.50;;;;;;;-144.57;100.00;62443.72;4936993;29;20486;-61
2023/06/18 09:51:51;;;;;;;7.38;3.80;;;;;;;-144.57;100.00;62443.72;4952443;29;20051;-62
2023/06/18 09:54:17;;;;;;;5.15;3.40;;;;;;;-144.57;100.00;62443.72;4936594;29;20513;-60
2023/06/18 09:56:59;;;;;;;7.32;3.40;;;;;;;-144.57;100.00;62443.72;4953831;29;20175;-63
2023/06/18 09:59:26;;;;;;;6.90;3.70;;;;;;;-144.57;100.00;62443.72;4953859;29;20054;-61
2023/06/18 10:01:52;;;;;;;5.72;3.28;;;;;;;-144.57;100.00;62443.72;4954165;28;20129;-60
2023/06/18 10:04:18;;;;;;;6.97;3.55;;;;;;;-144.57;100.00;62443.72;4953891;29;20126;-60
2023/06/18 10:06:58;;;;;;;6.13;3.47;;;;;;;-144.57;100.00;62443.72;4953708;29;20046;-63
2023/06/18 10:09:29;;;;;;;6.85;3.30;;;;;;;-144.57;100.00;62443.72;4953966;29;20074;-59
2023/06/18 10:11:57;;;;;;;5.72;3.45;;;;;;;-144.57;100.00;62443.72;4936413;29;20125;-61
2023/06/18 10:14:25;;;;;;;6.63;3.55;;;;;;;-144.57;100.00;62443.72;4952272;29;20104;-59
2023/06/18 10:16:53;;;;;;;5.88;3.60;;;;;;;-144.57;100.00;62443.72;4953600;29;20106;-61
2023/06/18 10:19:26;;;;;;;5.80;3.42;;;;;;;-144.57;100.00;62443.72;4953793;28;20058;-60
2023/06/18 10:21:58;;;;;;;7.25;3.55;;;;;;;-144.57;100.00;62443.72;4953397;29;20051;-60
2023/06/18 10:24:38;;;;;;;5.97;3.40;;;;;;;-144.57;100.00;62443.72;4952353;29;20775;-61
2023/06/18 10:27:05;;;;;;;7.88;3.40;;;;;;;-144.57;100.00;62443.72;4952154;29;20051;-61
2023/06/18 10:29:32;;;;;;;7.43;3.60;;;;;;;-144.57;100.00;62443.72;4936210;29;20049;-60
2023/06/18 10:32:00;;;;;;;5.28;3.67;;;;;;;-144.57;100.00;62443.72;4952012;29;20050;-61
2023/06/18 10:34:26;;;;;;;4.25;3.10;;;;;;;-144.57;100.00;62443.72;4951961;29;20145;-60
2023/06/18 10:36:54;;;;;;;6.38;3.45;;;;;;;-144.57;100.00;62443.72;4953347;29;20043;-60
2023/06/18 10:39:21;;;;;;;7.30;3.85;;;;;;;-144.57;100.00;62443.72;4952053;29;20053;-59
2023/06/18 10:41:46;;;;;;;5.35;3.78;;;;;;;-144.57;100.00;62443.72;4952061;29;20039;-59
2023/06/18 10:44:12;;;;;;;6.40;3.65;;;;;;;-144.57;100.00;62443.72;4935609;29;20070;-60
2023/06/18 10:46:38;;;;;;;6.28;3.30;;;;;;;-144.57;100.00;62443.72;4951667;29;20399;-61
2023/06/18 10:49:12;;;;;;;4.68;3.22;;;;;;;-144.57;100.00;62443.72;4951748;29;20162;-60
2023/06/18 10:51:38;;;;;;;5.65;3.42;;;;;;;-144.57;100.00;62443.72;4953423;29;20043;-60
2023/06/18 10:54:22;;;;;;;6.63;3.63;;;;;;;-144.57;100.00;62443.72;4953198;29;20059;-60
2023/06/18 10:56:55;;;;;;;6.78;3.15;;;;;;;-144.57;100.00;62443.72;4953222;29;20039;-59
2023/06/18 10:59:43;;;;;;;7.20;3.63;;;;;;;-144.57;100.00;62443.72;4953308;29;20079;-61
2023/06/18 11:02:09;;;;;;;7.32;3.40;;;;;;;-144.57;100.00;62443.72;4953087;29;20043;-61
2023/06/18 11:04:35;;;;;;;6.68;3.80;;;;;;;-144.57;100.00;62443.72;4953393;28;20134;-60
2023/06/18 11:07:17;;;;;;;5.70;3.40;;;;;;;-144.57;100.00;62443.72;4952867;29;20043;-62
2023/06/18 11:09:53;;;;;;;5.30;2.78;;;;;;;-144.57;100.00;62443.72;4953329;29;20047;-60